sensor_id;sensor_type;location;lat;lon;timestamp;P1;durP1;ratioP1;P2;durP2;ratioP2
49834;SDS011;35729;52.090;13.162;2022-08-19T00:00:05;126.43;;;59.33;;
49834;SDS011;35729;52.090;13.162;2022-08-19T00:02:39;107.43;;;55.25;;
49834;SDS011;35729;52.090;13.162;2022-08-19T00:05:10;123.90;;;57.22;;
49834;SDS011;35729;52.090;13.162;2022-08-19T00:07:40;106.10;;;52.70;;
49834;SDS011;35729;52.090;13.162;2022-08-19T00:10:11;124.32;;;56.65;;
49834;SDS011;35729;52.090;13.162;2022-08-19T00:12:41;130.27;;;60.35;;
49834;SDS011;35729;52.090;13.162;2022-08-19T00:15:14;104.78;;;53.10;;
49834;SDS011;35729;52.090;13.162;2022-08-19T00:17:45;75.70;;;45.28;;
49834;SDS011;35729;52.090;13.162;2022-08-19T00:20:16;94.20;;;50.97;;
49834;SDS011;35729;52.090;13.162;2022-08-19T00:22:47;101.70;;;50.83;;
49834;SDS011;35729;52.090;13.162;2022-08-19T00:25:16;114.95;;;55.08;;
49834;SDS011;35729;52.090;13.162;2022-08-19T00:27:45;102.97;;;53.85;;
49834;SDS011;35729;52.090;13.162;2022-08-19T00:30:16;118.53;;;56.58;;
49834;SDS011;35729;52.090;13.162;2022-08-19T00:32:45;125.88;;;58.13;;
49834;SDS011;35729;52.090;13.162;2022-08-19T00:35:13;131.77;;;60.17;;
49834;SDS011;35729;52.090;13.162;2022-08-19T00:37:42;137.43;;;61.83;;
49834;SDS011;35729;52.090;13.162;2022-08-19T00:40:11;139.98;;;60.97;;
49834;SDS011;35729;52.090;13.162;2022-08-19T00:42:40;128.93;;;60.25;;
49834;SDS011;35729;52.090;13.162;2022-08-19T00:45:11;127.93;;;58.75;;
49834;SDS011;35729;52.090;13.162;2022-08-19T00:47:44;128.57;;;59.97;;
49834;SDS011;35729;52.090;13.162;2022-08-19T00:50:15;137.88;;;59.75;;
49834;SDS011;35729;52.090;13.162;2022-08-19T00:52:46;146.15;;;59.30;;
49834;SDS011;35729;52.090;13.162;2022-08-19T00:55:18;142.80;;;60.50;;
49834;SDS011;35729;52.090;13.162;2022-08-19T00:57:51;146.80;;;61.03;;
49834;SDS011;35729;52.090;13.162;2022-08-19T01:00:24;135.05;;;60.28;;
49834;SDS011;35729;52.090;13.162;2022-08-19T01:02:56;125.78;;;56.15;;
49834;SDS011;35729;52.090;13.162;2022-08-19T01:05:26;139.32;;;59.78;;
49834;SDS011;35729;52.090;13.162;2022-08-19T01:07:57;145.73;;;58.17;;
49834;SDS011;35729;52.090;13.162;2022-08-19T01:10:29;144.32;;;58.58;;
49834;SDS011;35729;52.090;13.162;2022-08-19T01:13:11;115.97;;;52.58;;
49834;SDS011;35729;52.090;13.162;2022-08-19T01:15:42;128.52;;;55.70;;
49834;SDS011;35729;52.090;13.162;2022-08-19T01:18:17;126.63;;;55.10;;
49834;SDS011;35729;52.090;13.162;2022-08-19T01:20:48;112.30;;;53.20;;
49834;SDS011;35729;52.090;13.162;2022-08-19T01:23:19;112.32;;;53.58;;
49834;SDS011;35729;52.090;13.162;2022-08-19T01:26:07;109.28;;;52.30;;
49834;SDS011;35729;52.090;13.162;2022-08-19T01:28:39;106.95;;;51.50;;
49834;SDS011;35729;52.090;13.162;2022-08-19T01:31:09;95.60;;;48.90;;
49834;SDS011;35729;52.090;13.162;2022-08-19T01:33:40;122.38;;;55.33;;
49834;SDS011;35729;52.090;13.162;2022-08-19T01:36:10;137.05;;;57.33;;
49834;SDS011;35729;52.090;13.162;2022-08-19T01:38:43;133.30;;;55.30;;
49834;SDS011;35729;52.090;13.162;2022-08-19T01:41:12;154.57;;;61.22;;
49834;SDS011;35729;52.090;13.162;2022-08-19T01:43:41;170.43;;;62.35;;
49834;SDS011;35729;52.090;13.162;2022-08-19T01:46:10;136.55;;;56.45;;
49834;SDS011;35729;52.090;13.162;2022-08-19T01:48:40;130.65;;;55.88;;
49834;SDS011;35729;52.090;13.162;2022-08-19T01:51:10;149.63;;;59.30;;
49834;SDS011;35729;52.090;13.162;2022-08-19T01:53:45;127.55;;;56.92;;
49834;SDS011;35729;52.090;13.162;2022-08-19T01:56:15;148.30;;;59.00;;
49834;SDS011;35729;52.090;13.162;2022-08-19T01:58:45;139.88;;;57.97;;
49834;SDS011;35729;52.090;13.162;2022-08-19T02:01:17;126.82;;;55.13;;
49834;SDS011;35729;52.090;13.162;2022-08-19T02:03:47;147.13;;;60.38;;
49834;SDS011;35729;52.090;13.162;2022-08-19T02:06:17;145.85;;;59.97;;
49834;SDS011;35729;52.090;13.162;2022-08-19T02:08:48;153.70;;;59.80;;
49834;SDS011;35729;52.090;13.162;2022-08-19T02:11:20;150.15;;;57.45;;
49834;SDS011;35729;52.090;13.162;2022-08-19T02:13:51;167.35;;;62.17;;
49834;SDS011;35729;52.090;13.162;2022-08-19T02:16:20;159.10;;;60.42;;
49834;SDS011;35729;52.090;13.162;2022-08-19T02:18:49;143.75;;;56.60;;
49834;SDS011;35729;52.090;13.162;2022-08-19T02:21:19;125.47;;;52.35;;
49834;SDS011;35729;52.090;13.162;2022-08-19T02:23:52;130.95;;;54.47;;
49834;SDS011;35729;52.090;13.162;2022-08-19T02:26:20;133.52;;;54.40;;
49834;SDS011;35729;52.090;13.162;2022-08-19T02:28:51;119.65;;;53.08;;
49834;SDS011;35729;52.090;13.162;2022-08-19T02:31:21;143.23;;;58.30;;
49834;SDS011;35729;52.090;13.162;2022-08-19T02:33:53;123.07;;;55.22;;
49834;SDS011;35729;52.090;13.162;2022-08-19T02:36:22;123.28;;;56.58;;
49834;SDS011;35729;52.090;13.162;2022-08-19T02:38:55;131.10;;;56.85;;
49834;SDS011;35729;52.090;13.162;2022-08-19T02:41:28;131.23;;;57.55;;
49834;SDS011;35729;52.090;13.162;2022-08-19T02:44:00;110.82;;;53.90;;
49834;SDS011;35729;52.090;13.162;2022-08-19T02:46:30;136.95;;;57.88;;
49834;SDS011;35729;52.090;13.162;2022-08-19T02:49:03;137.15;;;59.83;;
49834;SDS011;35729;52.090;13.162;2022-08-19T02:51:35;133.30;;;58.30;;
49834;SDS011;35729;52.090;13.162;2022-08-19T02:54:09;117.22;;;56.60;;
49834;SDS011;35729;52.090;13.162;2022-08-19T02:56:39;116.88;;;56.58;;
49834;SDS011;35729;52.090;13.162;2022-08-19T02:59:09;130.38;;;58.25;;
49834;SDS011;35729;52.090;13.162;2022-08-19T03:01:38;116.15;;;57.03;;
49834;SDS011;35729;52.090;13.162;2022-08-19T03:04:09;139.88;;;61.78;;
49834;SDS011;35729;52.090;13.162;2022-08-19T03:06:41;140.77;;;62.08;;
49834;SDS011;35729;52.090;13.162;2022-08-19T03:09:14;144.10;;;62.35;;
49834;SDS011;35729;52.090;13.162;2022-08-19T03:11:44;133.63;;;59.10;;
49834;SDS011;35729;52.090;13.162;2022-08-19T03:14:13;153.45;;;62.33;;
49834;SDS011;35729;52.090;13.162;2022-08-19T03:16:43;128.77;;;57.90;;
49834;SDS011;35729;52.090;13.162;2022-08-19T03:19:13;151.85;;;62.53;;
49834;SDS011;35729;52.090;13.162;2022-08-19T03:21:43;146.30;;;61.60;;
49834;SDS011;35729;52.090;13.162;2022-08-19T03:24:15;158.65;;;62.22;;
49834;SDS011;35729;52.090;13.162;2022-08-19T03:26:46;170.45;;;65.85;;
49834;SDS011;35729;52.090;13.162;2022-08-19T03:29:16;158.40;;;63.95;;
49834;SDS011;35729;52.090;13.162;2022-08-19T03:31:46;159.30;;;66.97;;
49834;SDS011;35729;52.090;13.162;2022-08-19T03:34:16;145.75;;;62.65;;
49834;SDS011;35729;52.090;13.162;2022-08-19T03:36:46;166.60;;;66.55;;
49834;SDS011;35729;52.090;13.162;2022-08-19T03:39:17;177.13;;;66.38;;
49834;SDS011;35729;52.090;13.162;2022-08-19T03:41:47;172.35;;;66.47;;
49834;SDS011;35729;52.090;13.162;2022-08-19T03:44:19;178.88;;;66.78;;
49834;SDS011;35729;52.090;13.162;2022-08-19T03:46:49;179.02;;;66.60;;
49834;SDS011;35729;52.090;13.162;2022-08-19T03:49:19;169.75;;;64.68;;
49834;SDS011;35729;52.090;13.162;2022-08-19T03:51:49;173.68;;;65.57;;
49834;SDS011;35729;52.090;13.162;2022-08-19T03:54:21;171.35;;;64.38;;
49834;SDS011;35729;52.090;13.162;2022-08-19T03:56:51;168.73;;;63.38;;
49834;SDS011;35729;52.090;13.162;2022-08-19T03:59:22;168.82;;;63.53;;
49834;SDS011;35729;52.090;13.162;2022-08-19T04:01:52;160.75;;;62.63;;
49834;SDS011;35729;52.090;13.162;2022-08-19T04:04:22;149.73;;;60.97;;
49834;SDS011;35729;52.090;13.162;2022-08-19T04:06:51;136.80;;;57.30;;
49834;SDS011;35729;52.090;13.162;2022-08-19T04:09:23;144.75;;;60.20;;
49834;SDS011;35729;52.090;13.162;2022-08-19T04:11:53;154.38;;;61.85;;
49834;SDS011;35729;52.090;13.162;2022-08-19T04:14:29;161.30;;;61.35;;
49834;SDS011;35729;52.090;13.162;2022-08-19T04:16:59;162.48;;;61.60;;
49834;SDS011;35729;52.090;13.162;2022-08-19T04:19:30;142.85;;;58.90;;
49834;SDS011;35729;52.090;13.162;2022-08-19T04:21:58;141.43;;;58.25;;
49834;SDS011;35729;52.090;13.162;2022-08-19T04:24:29;159.80;;;61.38;;
49834;SDS011;35729;52.090;13.162;2022-08-19T04:26:58;139.20;;;57.58;;
49834;SDS011;35729;52.090;13.162;2022-08-19T04:29:27;140.68;;;56.53;;
49834;SDS011;35729;52.090;13.162;2022-08-19T04:31:57;141.40;;;59.03;;
49834;SDS011;35729;52.090;13.162;2022-08-19T04:34:27;159.95;;;60.88;;
49834;SDS011;35729;52.090;13.162;2022-08-19T04:36:57;142.32;;;57.97;;
49834;SDS011;35729;52.090;13.162;2022-08-19T04:39:27;164.80;;;60.65;;
49834;SDS011;35729;52.090;13.162;2022-08-19T04:42:11;141.85;;;58.00;;
49834;SDS011;35729;52.090;13.162;2022-08-19T04:44:52;143.43;;;57.08;;
49834;SDS011;35729;52.090;13.162;2022-08-19T04:47:20;146.00;;;56.63;;
49834;SDS011;35729;52.090;13.162;2022-08-19T04:49:49;145.73;;;57.65;;
49834;SDS011;35729;52.090;13.162;2022-08-19T04:52:17;155.82;;;60.03;;
49834;SDS011;35729;52.090;13.162;2022-08-19T04:54:48;138.65;;;56.30;;
49834;SDS011;35729;52.090;13.162;2022-08-19T04:57:17;143.18;;;60.28;;
49834;SDS011;35729;52.090;13.162;2022-08-19T04:59:45;141.90;;;58.72;;
49834;SDS011;35729;52.090;13.162;2022-08-19T05:02:14;137.13;;;57.60;;
49834;SDS011;35729;52.090;13.162;2022-08-19T05:04:42;140.55;;;58.55;;
49834;SDS011;35729;52.090;13.162;2022-08-19T05:07:11;138.57;;;58.35;;
49834;SDS011;35729;52.090;13.162;2022-08-19T05:09:39;156.32;;;61.92;;
49834;SDS011;35729;52.090;13.162;2022-08-19T05:12:10;168.32;;;63.28;;
49834;SDS011;35729;52.090;13.162;2022-08-19T05:14:39;144.18;;;59.28;;
49834;SDS011;35729;52.090;13.162;2022-08-19T05:17:07;135.00;;;57.47;;
49834;SDS011;35729;52.090;13.162;2022-08-19T05:19:36;149.88;;;60.55;;
49834;SDS011;35729;52.090;13.162;2022-08-19T05:22:17;141.88;;;57.97;;
49834;SDS011;35729;52.090;13.162;2022-08-19T05:25:02;142.05;;;60.15;;
49834;SDS011;35729;52.090;13.162;2022-08-19T05:27:35;113.78;;;54.60;;
49834;SDS011;35729;52.090;13.162;2022-08-19T05:30:04;106.35;;;52.15;;
49834;SDS011;35729;52.090;13.162;2022-08-19T05:32:34;122.50;;;54.10;;
49834;SDS011;35729;52.090;13.162;2022-08-19T05:35:03;140.32;;;58.08;;
49834;SDS011;35729;52.090;13.162;2022-08-19T05:37:32;111.95;;;52.97;;
49834;SDS011;35729;52.090;13.162;2022-08-19T05:40:01;117.60;;;53.50;;
49834;SDS011;35729;52.090;13.162;2022-08-19T05:42:30;129.48;;;54.70;;
49834;SDS011;35729;52.090;13.162;2022-08-19T05:45:02;121.15;;;52.83;;
49834;SDS011;35729;52.090;13.162;2022-08-19T05:47:32;110.68;;;53.38;;
49834;SDS011;35729;52.090;13.162;2022-08-19T05:50:00;108.95;;;51.85;;
49834;SDS011;35729;52.090;13.162;2022-08-19T05:52:29;126.70;;;52.95;;
49834;SDS011;35729;52.090;13.162;2022-08-19T05:54:58;102.30;;;49.17;;
49834;SDS011;35729;52.090;13.162;2022-08-19T05:57:26;100.82;;;48.53;;
49834;SDS011;35729;52.090;13.162;2022-08-19T05:59:55;110.13;;;51.47;;
49834;SDS011;35729;52.090;13.162;2022-08-19T06:02:29;102.65;;;49.53;;
49834;SDS011;35729;52.090;13.162;2022-08-19T06:04:58;96.63;;;48.75;;
49834;SDS011;35729;52.090;13.162;2022-08-19T06:07:27;99.28;;;49.15;;
49834;SDS011;35729;52.090;13.162;2022-08-19T06:09:56;95.13;;;49.17;;
49834;SDS011;35729;52.090;13.162;2022-08-19T06:12:24;102.45;;;50.60;;
49834;SDS011;35729;52.090;13.162;2022-08-19T06:14:54;87.00;;;45.85;;
49834;SDS011;35729;52.090;13.162;2022-08-19T06:17:22;101.70;;;49.60;;
49834;SDS011;35729;52.090;13.162;2022-08-19T06:19:53;95.13;;;47.28;;
49834;SDS011;35729;52.090;13.162;2022-08-19T06:22:22;91.05;;;48.25;;
49834;SDS011;35729;52.090;13.162;2022-08-19T06:24:51;112.15;;;52.65;;
49834;SDS011;35729;52.090;13.162;2022-08-19T06:27:20;89.95;;;47.40;;
49834;SDS011;35729;52.090;13.162;2022-08-19T06:29:49;86.88;;;45.47;;
49834;SDS011;35729;52.090;13.162;2022-08-19T06:32:19;91.35;;;47.72;;
49834;SDS011;35729;52.090;13.162;2022-08-19T06:34:47;100.93;;;47.90;;
49834;SDS011;35729;52.090;13.162;2022-08-19T06:37:18;84.57;;;44.53;;
49834;SDS011;35729;52.090;13.162;2022-08-19T06:39:47;102.13;;;46.97;;
49834;SDS011;35729;52.090;13.162;2022-08-19T06:42:16;70.07;;;41.95;;
49834;SDS011;35729;52.090;13.162;2022-08-19T06:44:46;68.82;;;41.75;;
49834;SDS011;35729;52.090;13.162;2022-08-19T06:47:17;91.60;;;44.25;;
49834;SDS011;35729;52.090;13.162;2022-08-19T06:49:47;71.90;;;41.17;;
49834;SDS011;35729;52.090;13.162;2022-08-19T06:52:15;79.63;;;43.05;;
49834;SDS011;35729;52.090;13.162;2022-08-19T06:54:47;82.70;;;41.40;;
49834;SDS011;35729;52.090;13.162;2022-08-19T06:57:16;72.35;;;40.45;;
49834;SDS011;35729;52.090;13.162;2022-08-19T06:59:44;67.80;;;40.28;;
49834;SDS011;35729;52.090;13.162;2022-08-19T07:02:12;68.00;;;39.45;;
49834;SDS011;35729;52.090;13.162;2022-08-19T07:04:41;58.30;;;37.45;;
49834;SDS011;35729;52.090;13.162;2022-08-19T07:07:10;56.80;;;34.67;;
49834;SDS011;35729;52.090;13.162;2022-08-19T07:09:41;53.85;;;35.17;;
49834;SDS011;35729;52.090;13.162;2022-08-19T07:12:14;69.20;;;39.30;;
49834;SDS011;35729;52.090;13.162;2022-08-19T07:14:49;64.30;;;38.53;;
49834;SDS011;35729;52.090;13.162;2022-08-19T07:17:17;62.15;;;38.35;;
49834;SDS011;35729;52.090;13.162;2022-08-19T07:19:46;58.08;;;36.92;;
49834;SDS011;35729;52.090;13.162;2022-08-19T07:22:15;61.25;;;38.72;;
49834;SDS011;35729;52.090;13.162;2022-08-19T07:24:45;63.58;;;39.20;;
49834;SDS011;35729;52.090;13.162;2022-08-19T07:27:17;58.88;;;37.95;;
49834;SDS011;35729;52.090;13.162;2022-08-19T07:29:46;60.35;;;38.58;;
49834;SDS011;35729;52.090;13.162;2022-08-19T07:32:15;70.75;;;39.88;;
49834;SDS011;35729;52.090;13.162;2022-08-19T07:34:43;62.63;;;38.30;;
49834;SDS011;35729;52.090;13.162;2022-08-19T07:37:12;60.58;;;38.50;;
49834;SDS011;35729;52.090;13.162;2022-08-19T07:39:40;64.85;;;39.60;;
49834;SDS011;35729;52.090;13.162;2022-08-19T07:42:09;76.47;;;43.53;;
49834;SDS011;35729;52.090;13.162;2022-08-19T07:44:42;63.20;;;41.17;;
49834;SDS011;35729;52.090;13.162;2022-08-19T07:47:10;63.67;;;42.50;;
49834;SDS011;35729;52.090;13.162;2022-08-19T07:49:47;67.90;;;44.15;;
49834;SDS011;35729;52.090;13.162;2022-08-19T07:52:16;79.18;;;46.53;;
49834;SDS011;35729;52.090;13.162;2022-08-19T07:54:45;81.47;;;46.58;;
49834;SDS011;35729;52.090;13.162;2022-08-19T07:57:15;83.65;;;47.35;;
49834;SDS011;35729;52.090;13.162;2022-08-19T07:59:46;68.03;;;44.15;;
49834;SDS011;35729;52.090;13.162;2022-08-19T08:02:15;83.53;;;47.97;;
49834;SDS011;35729;52.090;13.162;2022-08-19T08:04:43;76.70;;;46.13;;
49834;SDS011;35729;52.090;13.162;2022-08-19T08:07:24;72.93;;;46.17;;
49834;SDS011;35729;52.090;13.162;2022-08-19T08:10:05;84.97;;;48.75;;
49834;SDS011;35729;52.090;13.162;2022-08-19T08:12:36;98.85;;;53.33;;
49834;SDS011;35729;52.090;13.162;2022-08-19T08:15:10;79.47;;;48.88;;
49834;SDS011;35729;52.090;13.162;2022-08-19T08:17:43;92.45;;;51.05;;
49834;SDS011;35729;52.090;13.162;2022-08-19T08:20:13;82.78;;;48.75;;
49834;SDS011;35729;52.090;13.162;2022-08-19T08:22:45;91.22;;;53.03;;
49834;SDS011;35729;52.090;13.162;2022-08-19T08:25:27;93.65;;;53.17;;
49834;SDS011;35729;52.090;13.162;2022-08-19T08:27:56;110.63;;;55.53;;
49834;SDS011;35729;52.090;13.162;2022-08-19T08:30:28;86.10;;;50.55;;
49834;SDS011;35729;52.090;13.162;2022-08-19T08:33:00;103.85;;;53.92;;
49834;SDS011;35729;52.090;13.162;2022-08-19T08:35:28;81.68;;;48.60;;
49834;SDS011;35729;52.090;13.162;2022-08-19T08:37:57;85.75;;;48.63;;
49834;SDS011;35729;52.090;13.162;2022-08-19T08:40:27;80.68;;;52.33;;
49834;SDS011;35729;52.090;13.162;2022-08-19T08:43:01;84.20;;;51.63;;
49834;SDS011;35729;52.090;13.162;2022-08-19T08:45:38;84.63;;;51.03;;
49834;SDS011;35729;52.090;13.162;2022-08-19T08:48:16;82.93;;;51.63;;
49834;SDS011;35729;52.090;13.162;2022-08-19T08:50:48;76.70;;;49.53;;
49834;SDS011;35729;52.090;13.162;2022-08-19T08:53:21;82.05;;;50.35;;
49834;SDS011;35729;52.090;13.162;2022-08-19T08:55:52;84.00;;;51.00;;
49834;SDS011;35729;52.090;13.162;2022-08-19T08:58:46;77.93;;;48.35;;
49834;SDS011;35729;52.090;13.162;2022-08-19T09:01:22;87.05;;;50.40;;
49834;SDS011;35729;52.090;13.162;2022-08-19T09:03:50;84.97;;;52.55;;
49834;SDS011;35729;52.090;13.162;2022-08-19T09:06:21;77.68;;;49.10;;
49834;SDS011;35729;52.090;13.162;2022-08-19T09:09:13;85.93;;;51.87;;
49834;SDS011;35729;52.090;13.162;2022-08-19T09:11:47;77.45;;;49.08;;
49834;SDS011;35729;52.090;13.162;2022-08-19T09:14:31;78.22;;;50.75;;
49834;SDS011;35729;52.090;13.162;2022-08-19T09:17:09;71.47;;;48.70;;
49834;SDS011;35729;52.090;13.162;2022-08-19T09:19:46;88.30;;;52.50;;
49834;SDS011;35729;52.090;13.162;2022-08-19T09:22:18;78.80;;;51.80;;
49834;SDS011;35729;52.090;13.162;2022-08-19T09:24:48;72.10;;;50.38;;
49834;SDS011;35729;52.090;13.162;2022-08-19T09:27:18;76.20;;;51.47;;
49834;SDS011;35729;52.090;13.162;2022-08-19T09:29:48;64.85;;;46.85;;
49834;SDS011;35729;52.090;13.162;2022-08-19T09:32:21;65.32;;;46.90;;
49834;SDS011;35729;52.090;13.162;2022-08-19T09:34:51;75.28;;;48.53;;
49834;SDS011;35729;52.090;13.162;2022-08-19T09:37:20;70.25;;;47.58;;
49834;SDS011;35729;52.090;13.162;2022-08-19T09:39:49;67.90;;;47.97;;
49834;SDS011;35729;52.090;13.162;2022-08-19T09:42:18;57.15;;;44.13;;
49834;SDS011;35729;52.090;13.162;2022-08-19T09:44:47;62.75;;;45.95;;
49834;SDS011;35729;52.090;13.162;2022-08-19T09:47:15;64.20;;;46.13;;
49834;SDS011;35729;52.090;13.162;2022-08-19T09:49:46;57.00;;;43.13;;
49834;SDS011;35729;52.090;13.162;2022-08-19T09:52:15;58.75;;;43.83;;
49834;SDS011;35729;52.090;13.162;2022-08-19T09:54:44;61.53;;;45.17;;
49834;SDS011;35729;52.090;13.162;2022-08-19T09:57:12;62.85;;;45.35;;
49834;SDS011;35729;52.090;13.162;2022-08-19T09:59:41;59.53;;;45.30;;
49834;SDS011;35729;52.090;13.162;2022-08-19T10:02:10;56.25;;;42.80;;
49834;SDS011;35729;52.090;13.162;2022-08-19T10:04:38;57.65;;;44.08;;
49834;SDS011;35729;52.090;13.162;2022-08-19T10:07:21;61.35;;;44.08;;
49834;SDS011;35729;52.090;13.162;2022-08-19T10:09:50;59.42;;;45.08;;
49834;SDS011;35729;52.090;13.162;2022-08-19T10:12:19;62.60;;;44.75;;
49834;SDS011;35729;52.090;13.162;2022-08-19T10:14:47;66.45;;;46.28;;
49834;SDS011;35729;52.090;13.162;2022-08-19T10:17:18;58.90;;;42.88;;
49834;SDS011;35729;52.090;13.162;2022-08-19T10:19:47;65.38;;;47.13;;
49834;SDS011;35729;52.090;13.162;2022-08-19T10:22:15;69.72;;;46.22;;
49834;SDS011;35729;52.090;13.162;2022-08-19T10:24:47;64.90;;;46.28;;
49834;SDS011;35729;52.090;13.162;2022-08-19T10:27:17;66.85;;;45.97;;
49834;SDS011;35729;52.090;13.162;2022-08-19T10:29:46;68.90;;;46.05;;
49834;SDS011;35729;52.090;13.162;2022-08-19T10:32:14;67.82;;;46.58;;
49834;SDS011;35729;52.090;13.162;2022-08-19T10:34:43;63.75;;;45.25;;
49834;SDS011;35729;52.090;13.162;2022-08-19T10:37:11;67.05;;;48.17;;
49834;SDS011;35729;52.090;13.162;2022-08-19T10:39:40;68.82;;;44.70;;
49834;SDS011;35729;52.090;13.162;2022-08-19T10:42:11;74.78;;;48.08;;
49834;SDS011;35729;52.090;13.162;2022-08-19T10:44:41;70.97;;;46.72;;
49834;SDS011;35729;52.090;13.162;2022-08-19T10:47:10;82.38;;;49.20;;
49834;SDS011;35729;52.090;13.162;2022-08-19T10:49:39;76.35;;;48.72;;
49834;SDS011;35729;52.090;13.162;2022-08-19T10:52:19;77.78;;;48.58;;
49834;SDS011;35729;52.090;13.162;2022-08-19T10:55:00;73.63;;;47.53;;
49834;SDS011;35729;52.090;13.162;2022-08-19T10:57:44;87.07;;;48.40;;
49834;SDS011;35729;52.090;13.162;2022-08-19T11:00:13;77.60;;;46.08;;
49834;SDS011;35729;52.090;13.162;2022-08-19T11:02:42;89.90;;;49.55;;
49834;SDS011;35729;52.090;13.162;2022-08-19T11:05:11;87.35;;;48.50;;
49834;SDS011;35729;52.090;13.162;2022-08-19T11:07:40;85.03;;;47.85;;
49834;SDS011;35729;52.090;13.162;2022-08-19T11:10:10;90.30;;;49.20;;
49834;SDS011;35729;52.090;13.162;2022-08-19T11:12:46;88.22;;;48.75;;
49834;SDS011;35729;52.090;13.162;2022-08-19T11:15:19;90.03;;;48.58;;
49834;SDS011;35729;52.090;13.162;2022-08-19T11:17:48;85.93;;;47.70;;
49834;SDS011;35729;52.090;13.162;2022-08-19T11:20:18;87.22;;;45.67;;
49834;SDS011;35729;52.090;13.162;2022-08-19T11:22:48;88.40;;;47.67;;
49834;SDS011;35729;52.090;13.162;2022-08-19T11:25:19;89.72;;;47.08;;
49834;SDS011;35729;52.090;13.162;2022-08-19T11:27:50;82.65;;;45.83;;
49834;SDS011;35729;52.090;13.162;2022-08-19T11:30:19;83.82;;;46.42;;
49834;SDS011;35729;52.090;13.162;2022-08-19T11:32:47;86.60;;;48.00;;
49834;SDS011;35729;52.090;13.162;2022-08-19T11:35:16;92.10;;;47.63;;
49834;SDS011;35729;52.090;13.162;2022-08-19T11:37:45;95.55;;;49.80;;
49834;SDS011;35729;52.090;13.162;2022-08-19T11:40:13;96.38;;;46.42;;
49834;SDS011;35729;52.090;13.162;2022-08-19T11:42:42;91.63;;;48.33;;
49834;SDS011;35729;52.090;13.162;2022-08-19T11:45:26;101.28;;;49.08;;
49834;SDS011;35729;52.090;13.162;2022-08-19T11:47:55;86.72;;;45.55;;
49834;SDS011;35729;52.090;13.162;2022-08-19T11:50:24;84.25;;;45.30;;
49834;SDS011;35729;52.090;13.162;2022-08-19T11:52:53;89.75;;;46.10;;
49834;SDS011;35729;52.090;13.162;2022-08-19T11:55:22;77.75;;;43.35;;
49834;SDS011;35729;52.090;13.162;2022-08-19T11:57:51;77.70;;;44.47;;
49834;SDS011;35729;52.090;13.162;2022-08-19T12:00:20;77.63;;;43.78;;
49834;SDS011;35729;52.090;13.162;2022-08-19T12:02:51;68.10;;;40.17;;
49834;SDS011;35729;52.090;13.162;2022-08-19T12:05:20;66.82;;;41.28;;
49834;SDS011;35729;52.090;13.162;2022-08-19T12:07:48;63.50;;;38.85;;
49834;SDS011;35729;52.090;13.162;2022-08-19T12:10:17;58.88;;;39.55;;
49834;SDS011;35729;52.090;13.162;2022-08-19T12:12:45;58.50;;;38.90;;
49834;SDS011;35729;52.090;13.162;2022-08-19T12:15:14;57.75;;;37.78;;
49834;SDS011;35729;52.090;13.162;2022-08-19T12:17:43;59.72;;;37.90;;
49834;SDS011;35729;52.090;13.162;2022-08-19T12:20:14;58.25;;;38.92;;
49834;SDS011;35729;52.090;13.162;2022-08-19T12:22:43;54.35;;;37.17;;
49834;SDS011;35729;52.090;13.162;2022-08-19T12:25:13;52.78;;;36.42;;
49834;SDS011;35729;52.090;13.162;2022-08-19T12:27:42;52.80;;;34.70;;
49834;SDS011;35729;52.090;13.162;2022-08-19T12:30:12;55.92;;;36.90;;
49834;SDS011;35729;52.090;13.162;2022-08-19T12:32:41;49.10;;;35.40;;
49834;SDS011;35729;52.090;13.162;2022-08-19T12:35:10;56.80;;;36.13;;
49834;SDS011;35729;52.090;13.162;2022-08-19T12:37:41;55.38;;;36.17;;
49834;SDS011;35729;52.090;13.162;2022-08-19T12:40:10;51.63;;;34.97;;
49834;SDS011;35729;52.090;13.162;2022-08-19T12:42:39;53.13;;;35.33;;
49834;SDS011;35729;52.090;13.162;2022-08-19T12:45:09;55.40;;;37.45;;
49834;SDS011;35729;52.090;13.162;2022-08-19T12:47:38;55.22;;;35.75;;
49834;SDS011;35729;52.090;13.162;2022-08-19T12:50:08;51.78;;;34.10;;
49834;SDS011;35729;52.090;13.162;2022-08-19T12:52:37;48.80;;;34.22;;
49834;SDS011;35729;52.090;13.162;2022-08-19T12:55:10;54.97;;;35.72;;
49834;SDS011;35729;52.090;13.162;2022-08-19T12:57:38;56.20;;;35.28;;
49834;SDS011;35729;52.090;13.162;2022-08-19T13:00:09;50.70;;;34.72;;
49834;SDS011;35729;52.090;13.162;2022-08-19T13:02:40;54.50;;;35.57;;
49834;SDS011;35729;52.090;13.162;2022-08-19T13:05:12;45.13;;;32.83;;
49834;SDS011;35729;52.090;13.162;2022-08-19T13:07:45;47.17;;;33.72;;
49834;SDS011;35729;52.090;13.162;2022-08-19T13:10:16;47.22;;;31.95;;
49834;SDS011;35729;52.090;13.162;2022-08-19T13:12:47;45.60;;;32.55;;
49834;SDS011;35729;52.090;13.162;2022-08-19T13:15:18;42.00;;;30.85;;
49834;SDS011;35729;52.090;13.162;2022-08-19T13:17:49;45.47;;;31.50;;
49834;SDS011;35729;52.090;13.162;2022-08-19T13:20:20;39.70;;;29.70;;
49834;SDS011;35729;52.090;13.162;2022-08-19T13:22:50;45.08;;;30.73;;
49834;SDS011;35729;52.090;13.162;2022-08-19T13:25:21;47.63;;;30.45;;
49834;SDS011;35729;52.090;13.162;2022-08-19T13:27:50;40.65;;;30.10;;
49834;SDS011;35729;52.090;13.162;2022-08-19T13:30:20;38.05;;;30.70;;
49834;SDS011;35729;52.090;13.162;2022-08-19T13:33:04;44.03;;;30.15;;
49834;SDS011;35729;52.090;13.162;2022-08-19T13:35:40;47.88;;;31.63;;
49834;SDS011;35729;52.090;13.162;2022-08-19T13:38:10;42.42;;;29.63;;
49834;SDS011;35729;52.090;13.162;2022-08-19T13:40:42;41.08;;;31.08;;
49834;SDS011;35729;52.090;13.162;2022-08-19T13:43:11;39.08;;;29.88;;
49834;SDS011;35729;52.090;13.162;2022-08-19T13:45:40;40.70;;;29.38;;
49834;SDS011;35729;52.090;13.162;2022-08-19T13:48:08;39.13;;;29.10;;
49834;SDS011;35729;52.090;13.162;2022-08-19T13:50:39;37.30;;;29.75;;
49834;SDS011;35729;52.090;13.162;2022-08-19T13:53:10;37.85;;;27.83;;
49834;SDS011;35729;52.090;13.162;2022-08-19T13:55:38;40.67;;;29.77;;
49834;SDS011;35729;52.090;13.162;2022-08-19T13:58:11;37.83;;;28.37;;
49834;SDS011;35729;52.090;13.162;2022-08-19T14:00:41;35.10;;;28.05;;
49834;SDS011;35729;52.090;13.162;2022-08-19T14:03:11;33.97;;;27.10;;
49834;SDS011;35729;52.090;13.162;2022-08-19T14:05:40;34.83;;;27.67;;
49834;SDS011;35729;52.090;13.162;2022-08-19T14:08:08;31.38;;;26.67;;
49834;SDS011;35729;52.090;13.162;2022-08-19T14:10:41;33.80;;;26.55;;
49834;SDS011;35729;52.090;13.162;2022-08-19T14:13:12;30.73;;;26.23;;
49834;SDS011;35729;52.090;13.162;2022-08-19T14:15:43;31.80;;;25.70;;
49834;SDS011;35729;52.090;13.162;2022-08-19T14:18:12;34.83;;;26.55;;
49834;SDS011;35729;52.090;13.162;2022-08-19T14:20:41;34.90;;;26.45;;
49834;SDS011;35729;52.090;13.162;2022-08-19T14:23:10;33.95;;;26.95;;